sensor_id;sensor_type;location;lat;lon;timestamp;P1;durP1;ratioP1;P2;durP2;ratioP2
75163;SDS011;63746;45.402;37.922;2022-12-13T00:01:34;0.20;;;0.17;;
75163;SDS011;63746;45.402;37.922;2022-12-13T00:04:01;0.00;;;0.00;;
75163;SDS011;63746;45.402;37.922;2022-12-13T00:06:30;0.10;;;0.10;;
75163;SDS011;63746;45.402;37.922;2022-12-13T00:08:56;0.08;;;0.00;;
75163;SDS011;63746;45.402;37.922;2022-12-13T00:11:23;0.00;;;0.00;;
75163;SDS011;63746;45.402;37.922;2022-12-13T00:13:49;0.00;;;0.00;;
75163;SDS011;63746;45.402;37.922;2022-12-13T00:16:16;0.08;;;0.03;;
75163;SDS011;63746;45.402;37.922;2022-12-13T00:18:54;0.20;;;0.20;;
75163;SDS011;63746;45.402;37.922;2022-12-13T00:21:23;23.83;;;1.65;;
75163;SDS011;63746;45.402;37.922;2022-12-13T00:23:51;0.10;;;0.00;;
75163;SDS011;63746;45.402;37.922;2022-12-13T00:26:21;0.93;;;0.93;;
75163;SDS011;63746;45.402;37.922;2022-12-13T00:28:50;0.85;;;0.85;;
75163;SDS011;63746;45.402;37.922;2022-12-13T00:31:17;5.63;;;1.75;;
75163;SDS011;63746;45.402;37.922;2022-12-13T00:33:44;0.08;;;0.08;;
75163;SDS011;63746;45.402;37.922;2022-12-13T00:36:10;0.00;;;0.00;;
75163;SDS011;63746;45.402;37.922;2022-12-13T00:38:36;0.00;;;0.00;;
75163;SDS011;63746;45.402;37.922;2022-12-13T00:41:16;0.80;;;0.80;;
75163;SDS011;63746;45.402;37.922;2022-12-13T00:43:43;0.00;;;0.00;;
75163;SDS011;63746;45.402;37.922;2022-12-13T00:46:11;0.00;;;0.00;;
75163;SDS011;63746;45.402;37.922;2022-12-13T00:48:39;0.00;;;0.00;;
75163;SDS011;63746;45.402;37.922;2022-12-13T00:51:09;0.45;;;0.45;;
75163;SDS011;63746;45.402;37.922;2022-12-13T00:53:36;2.38;;;2.13;;
75163;SDS011;63746;45.402;37.922;2022-12-13T00:56:03;0.08;;;0.00;;
75163;SDS011;63746;45.402;37.922;2022-12-13T00:58:29;0.00;;;0.00;;
75163;SDS011;63746;45.402;37.922;2022-12-13T01:01:02;0.30;;;0.22;;
75163;SDS011;63746;45.402;37.922;2022-12-13T01:03:29;0.00;;;0.00;;
75163;SDS011;63746;45.402;37.922;2022-12-13T01:05:55;0.10;;;0.00;;
75163;SDS011;63746;45.402;37.922;2022-12-13T01:08:21;0.00;;;0.00;;
75163;SDS011;63746;45.402;37.922;2022-12-13T01:10:47;0.00;;;0.00;;
75163;SDS011;63746;45.402;37.922;2022-12-13T01:13:13;0.08;;;0.08;;
75163;SDS011;63746;45.402;37.922;2022-12-13T01:15:43;0.35;;;0.30;;
75163;SDS011;63746;45.402;37.922;2022-12-13T01:18:10;0.00;;;0.00;;
75163;SDS011;63746;45.402;37.922;2022-12-13T01:20:38;0.00;;;0.00;;
75163;SDS011;63746;45.402;37.922;2022-12-13T01:23:05;0.00;;;0.00;;
75163;SDS011;63746;45.402;37.922;2022-12-13T01:25:31;0.00;;;0.00;;
75163;SDS011;63746;45.402;37.922;2022-12-13T01:27:58;0.00;;;0.00;;
75163;SDS011;63746;45.402;37.922;2022-12-13T01:30:24;0.00;;;0.00;;
75163;SDS011;63746;45.402;37.922;2022-12-13T01:32:51;0.08;;;0.00;;
75163;SDS011;63746;45.402;37.922;2022-12-13T01:35:17;0.10;;;0.10;;
75163;SDS011;63746;45.402;37.922;2022-12-13T01:37:43;0.03;;;0.00;;
75163;SDS011;63746;45.402;37.922;2022-12-13T01:40:09;0.40;;;0.40;;
75163;SDS011;63746;45.402;37.922;2022-12-13T01:42:36;0.00;;;0.00;;
75163;SDS011;63746;45.402;37.922;2022-12-13T01:47:59;0.00;;;0.00;;
75163;SDS011;63746;45.402;37.922;2022-12-13T01:50:29;0.00;;;0.00;;
75163;SDS011;63746;45.402;37.922;2022-12-13T01:52:58;1.05;;;0.95;;
75163;SDS011;63746;45.402;37.922;2022-12-13T01:55:26;0.08;;;0.00;;
75163;SDS011;63746;45.402;37.922;2022-12-13T01:57:57;0.10;;;0.10;;
75163;SDS011;63746;45.402;37.922;2022-12-13T02:00:26;0.00;;;0.00;;
75163;SDS011;63746;45.402;37.922;2022-12-13T02:02:54;0.00;;;0.00;;
75163;SDS011;63746;45.402;37.922;2022-12-13T02:05:26;0.17;;;0.00;;
75163;SDS011;63746;45.402;37.922;2022-12-13T02:07:57;0.05;;;0.05;;
75163;SDS011;63746;45.402;37.922;2022-12-13T02:10:25;0.00;;;0.00;;
75163;SDS011;63746;45.402;37.922;2022-12-13T02:12:52;0.20;;;0.17;;
75163;SDS011;63746;45.402;37.922;2022-12-13T02:15:19;0.88;;;0.55;;
75163;SDS011;63746;45.402;37.922;2022-12-13T02:29:33;0.28;;;0.28;;
75163;SDS011;63746;45.402;37.922;2022-12-13T02:32:24;0.10;;;0.10;;
75163;SDS011;63746;45.402;37.922;2022-12-13T02:35:08;0.00;;;0.00;;
75163;SDS011;63746;45.402;37.922;2022-12-13T02:37:45;0.45;;;0.45;;
75163;SDS011;63746;45.402;37.922;2022-12-13T02:40:36;0.00;;;0.00;;
75163;SDS011;63746;45.402;37.922;2022-12-13T02:43:25;0.28;;;0.22;;
75163;SDS011;63746;45.402;37.922;2022-12-13T02:46:03;0.00;;;0.00;;
75163;SDS011;63746;45.402;37.922;2022-12-13T02:48:32;2.40;;;0.88;;
75163;SDS011;63746;45.402;37.922;2022-12-13T02:51:04;0.10;;;0.00;;
75163;SDS011;63746;45.402;37.922;2022-12-13T02:53:33;0.63;;;0.57;;
75163;SDS011;63746;45.402;37.922;2022-12-13T02:56:01;0.00;;;0.00;;
75163;SDS011;63746;45.402;37.922;2022-12-13T02:58:28;0.28;;;0.15;;
75163;SDS011;63746;45.402;37.922;2022-12-13T03:01:03;0.00;;;0.00;;
75163;SDS011;63746;45.402;37.922;2022-12-13T03:03:53;0.00;;;0.00;;
75163;SDS011;63746;45.402;37.922;2022-12-13T03:06:38;0.13;;;0.10;;
75163;SDS011;63746;45.402;37.922;2022-12-13T03:15:02;1.30;;;0.38;;
75163;SDS011;63746;45.402;37.922;2022-12-13T03:17:57;0.00;;;0.00;;
75163;SDS011;63746;45.402;37.922;2022-12-13T03:20:30;0.00;;;0.00;;
75163;SDS011;63746;45.402;37.922;2022-12-13T03:22:57;0.10;;;0.10;;
75163;SDS011;63746;45.402;37.922;2022-12-13T03:25:25;0.10;;;0.10;;
75163;SDS011;63746;45.402;37.922;2022-12-13T03:27:54;0.20;;;0.10;;
75163;SDS011;63746;45.402;37.922;2022-12-13T03:30:20;0.00;;;0.00;;
75163;SDS011;63746;45.402;37.922;2022-12-13T03:32:46;0.03;;;0.00;;
75163;SDS011;63746;45.402;37.922;2022-12-13T03:35:12;0.00;;;0.00;;
75163;SDS011;63746;45.402;37.922;2022-12-13T03:37:37;0.00;;;0.00;;
75163;SDS011;63746;45.402;37.922;2022-12-13T03:40:04;0.10;;;0.10;;
75163;SDS011;63746;45.402;37.922;2022-12-13T03:42:30;0.00;;;0.00;;
75163;SDS011;63746;45.402;37.922;2022-12-13T03:44:56;0.00;;;0.00;;
75163;SDS011;63746;45.402;37.922;2022-12-13T03:47:22;1.65;;;1.02;;
75163;SDS011;63746;45.402;37.922;2022-12-13T03:49:48;0.00;;;0.00;;
75163;SDS011;63746;45.402;37.922;2022-12-13T03:52:14;0.20;;;0.10;;
75163;SDS011;63746;45.402;37.922;2022-12-13T03:54:40;0.40;;;0.35;;
75163;SDS011;63746;45.402;37.922;2022-12-13T03:57:06;5.18;;;0.43;;
75163;SDS011;63746;45.402;37.922;2022-12-13T03:59:31;0.17;;;0.10;;
75163;SDS011;63746;45.402;37.922;2022-12-13T04:01:57;0.00;;;0.00;;
75163;SDS011;63746;45.402;37.922;2022-12-13T04:04:23;0.55;;;0.55;;
75163;SDS011;63746;45.402;37.922;2022-12-13T04:06:49;0.00;;;0.00;;
75163;SDS011;63746;45.402;37.922;2022-12-13T04:09:15;0.10;;;0.00;;
75163;SDS011;63746;45.402;37.922;2022-12-13T04:11:41;0.43;;;0.35;;
75163;SDS011;63746;45.402;37.922;2022-12-13T04:14:25;0.00;;;0.00;;
75163;SDS011;63746;45.402;37.922;2022-12-13T04:16:51;0.00;;;0.00;;
75163;SDS011;63746;45.402;37.922;2022-12-13T04:19:18;0.00;;;0.00;;
75163;SDS011;63746;45.402;37.922;2022-12-13T04:21:44;0.08;;;0.00;;
75163;SDS011;63746;45.402;37.922;2022-12-13T04:24:10;7.78;;;3.42;;
75163;SDS011;63746;45.402;37.922;2022-12-13T04:26:36;0.00;;;0.00;;
75163;SDS011;63746;45.402;37.922;2022-12-13T04:29:02;0.10;;;0.05;;
75163;SDS011;63746;45.402;37.922;2022-12-13T04:31:28;0.03;;;0.00;;
75163;SDS011;63746;45.402;37.922;2022-12-13T04:33:54;0.13;;;0.10;;
75163;SDS011;63746;45.402;37.922;2022-12-13T04:36:20;0.13;;;0.10;;
75163;SDS011;63746;45.402;37.922;2022-12-13T04:38:46;0.00;;;0.00;;
75163;SDS011;63746;45.402;37.922;2022-12-13T04:41:13;0.00;;;0.00;;
75163;SDS011;63746;45.402;37.922;2022-12-13T04:43:41;0.00;;;0.00;;
75163;SDS011;63746;45.402;37.922;2022-12-13T04:46:07;0.00;;;0.00;;
75163;SDS011;63746;45.402;37.922;2022-12-13T04:48:33;0.45;;;0.40;;
75163;SDS011;63746;45.402;37.922;2022-12-13T04:50:59;0.00;;;0.00;;
75163;SDS011;63746;45.402;37.922;2022-12-13T04:53:26;0.00;;;0.00;;
75163;SDS011;63746;45.402;37.922;2022-12-13T04:55:53;0.00;;;0.00;;
75163;SDS011;63746;45.402;37.922;2022-12-13T04:58:19;1.02;;;0.95;;
75163;SDS011;63746;45.402;37.922;2022-12-13T05:00:44;0.75;;;0.65;;
75163;SDS011;63746;45.402;37.922;2022-12-13T05:03:10;1.98;;;1.83;;
75163;SDS011;63746;45.402;37.922;2022-12-13T05:05:39;23.23;;;10.57;;
75163;SDS011;63746;45.402;37.922;2022-12-13T05:08:06;23.27;;;14.35;;
75163;SDS011;63746;45.402;37.922;2022-12-13T05:10:32;20.55;;;18.42;;
75163;SDS011;63746;45.402;37.922;2022-12-13T05:12:59;4.10;;;2.28;;
75163;SDS011;63746;45.402;37.922;2022-12-13T05:15:25;12.70;;;5.10;;
75163;SDS011;63746;45.402;37.922;2022-12-13T05:17:51;0.90;;;0.70;;
75163;SDS011;63746;45.402;37.922;2022-12-13T05:20:17;0.00;;;0.00;;
75163;SDS011;63746;45.402;37.922;2022-12-13T05:22:43;2.78;;;1.38;;
75163;SDS011;63746;45.402;37.922;2022-12-13T05:25:09;3.47;;;3.17;;
75163;SDS011;63746;45.402;37.922;2022-12-13T05:27:35;19.00;;;15.68;;
75163;SDS011;63746;45.402;37.922;2022-12-13T05:30:01;47.70;;;26.10;;
75163;SDS011;63746;45.402;37.922;2022-12-13T05:32:27;54.10;;;11.45;;
75163;SDS011;63746;45.402;37.922;2022-12-13T05:34:55;11.55;;;7.50;;
75163;SDS011;63746;45.402;37.922;2022-12-13T05:37:21;1.02;;;0.93;;
75163;SDS011;63746;45.402;37.922;2022-12-13T05:39:47;0.03;;;0.03;;
75163;SDS011;63746;45.402;37.922;2022-12-13T05:42:13;0.17;;;0.10;;
75163;SDS011;63746;45.402;37.922;2022-12-13T05:44:39;1.08;;;0.75;;
75163;SDS011;63746;45.402;37.922;2022-12-13T05:47:04;0.63;;;0.47;;
75163;SDS011;63746;45.402;37.922;2022-12-13T05:49:30;1.00;;;0.93;;
75163;SDS011;63746;45.402;37.922;2022-12-13T05:51:56;1.08;;;0.93;;
75163;SDS011;63746;45.402;37.922;2022-12-13T05:54:22;0.30;;;0.10;;
75163;SDS011;63746;45.402;37.922;2022-12-13T05:56:48;0.38;;;0.30;;
75163;SDS011;63746;45.402;37.922;2022-12-13T05:59:14;0.00;;;0.00;;
75163;SDS011;63746;45.402;37.922;2022-12-13T06:01:40;0.20;;;0.20;;
75163;SDS011;63746;45.402;37.922;2022-12-13T06:04:06;3.83;;;2.42;;
75163;SDS011;63746;45.402;37.922;2022-12-13T06:06:32;0.08;;;0.00;;
75163;SDS011;63746;45.402;37.922;2022-12-13T06:08:58;1.27;;;0.93;;
75163;SDS011;63746;45.402;37.922;2022-12-13T06:11:24;0.00;;;0.00;;
75163;SDS011;63746;45.402;37.922;2022-12-13T06:13:51;0.00;;;0.00;;
75163;SDS011;63746;45.402;37.922;2022-12-13T06:16:17;1.02;;;0.70;;
75163;SDS011;63746;45.402;37.922;2022-12-13T06:18:43;0.10;;;0.10;;
75163;SDS011;63746;45.402;37.922;2022-12-13T06:21:09;0.08;;;0.00;;
75163;SDS011;63746;45.402;37.922;2022-12-13T06:23:35;0.15;;;0.00;;
75163;SDS011;63746;45.402;37.922;2022-12-13T06:26:05;0.15;;;0.05;;
75163;SDS011;63746;45.402;37.922;2022-12-13T06:28:31;0.17;;;0.17;;
75163;SDS011;63746;45.402;37.922;2022-12-13T06:30:58;0.00;;;0.00;;
75163;SDS011;63746;45.402;37.922;2022-12-13T06:33:25;12.57;;;2.42;;
75163;SDS011;63746;45.402;37.922;2022-12-13T06:35:51;0.55;;;0.32;;
75163;SDS011;63746;45.402;37.922;2022-12-13T06:38:21;0.15;;;0.08;;
75163;SDS011;63746;45.402;37.922;2022-12-13T06:40:48;0.00;;;0.00;;
75163;SDS011;63746;45.402;37.922;2022-12-13T06:43:14;0.90;;;0.75;;
75163;SDS011;63746;45.402;37.922;2022-12-13T06:45:40;0.45;;;0.17;;
75163;SDS011;63746;45.402;37.922;2022-12-13T06:48:05;0.00;;;0.00;;
75163;SDS011;63746;45.402;37.922;2022-12-13T06:50:32;0.00;;;0.00;;
75163;SDS011;63746;45.402;37.922;2022-12-13T06:52:58;0.17;;;0.10;;
75163;SDS011;63746;45.402;37.922;2022-12-13T06:55:24;0.00;;;0.00;;
75163;SDS011;63746;45.402;37.922;2022-12-13T06:57:50;0.03;;;0.00;;
75163;SDS011;63746;45.402;37.922;2022-12-13T07:00:16;0.30;;;0.15;;
75163;SDS011;63746;45.402;37.922;2022-12-13T07:02:42;0.82;;;0.57;;
75163;SDS011;63746;45.402;37.922;2022-12-13T07:05:08;0.45;;;0.45;;
75163;SDS011;63746;45.402;37.922;2022-12-13T07:07:35;1.45;;;0.30;;
75163;SDS011;63746;45.402;37.922;2022-12-13T07:10:01;0.60;;;0.50;;
75163;SDS011;63746;45.402;37.922;2022-12-13T07:12:27;0.13;;;0.08;;
75163;SDS011;63746;45.402;37.922;2022-12-13T07:14:52;1.38;;;1.33;;
75163;SDS011;63746;45.402;37.922;2022-12-13T07:17:19;0.00;;;0.00;;
75163;SDS011;63746;45.402;37.922;2022-12-13T07:19:45;0.47;;;0.47;;
75163;SDS011;63746;45.402;37.922;2022-12-13T07:22:11;1.35;;;0.73;;
75163;SDS011;63746;45.402;37.922;2022-12-13T07:24:37;0.03;;;0.03;;
75163;SDS011;63746;45.402;37.922;2022-12-13T07:27:03;0.40;;;0.32;;
75163;SDS011;63746;45.402;37.922;2022-12-13T07:29:29;2.30;;;2.20;;
75163;SDS011;63746;45.402;37.922;2022-12-13T07:31:55;0.00;;;0.00;;
75163;SDS011;63746;45.402;37.922;2022-12-13T07:34:21;0.55;;;0.47;;
75163;SDS011;63746;45.402;37.922;2022-12-13T07:36:48;0.20;;;0.20;;
75163;SDS011;63746;45.402;37.922;2022-12-13T07:39:15;0.32;;;0.20;;
75163;SDS011;63746;45.402;37.922;2022-12-13T07:41:41;0.98;;;0.35;;
75163;SDS011;63746;45.402;37.922;2022-12-13T07:44:06;0.08;;;0.00;;
75163;SDS011;63746;45.402;37.922;2022-12-13T07:46:33;1.33;;;0.43;;
75163;SDS011;63746;45.402;37.922;2022-12-13T07:49:02;0.70;;;0.70;;
75163;SDS011;63746;45.402;37.922;2022-12-13T07:51:29;0.35;;;0.20;;
75163;SDS011;63746;45.402;37.922;2022-12-13T07:53:57;1.33;;;1.17;;
75163;SDS011;63746;45.402;37.922;2022-12-13T07:56:22;0.60;;;0.60;;
75163;SDS011;63746;45.402;37.922;2022-12-13T07:58:49;0.10;;;0.00;;
75163;SDS011;63746;45.402;37.922;2022-12-13T08:01:18;0.28;;;0.08;;
75163;SDS011;63746;45.402;37.922;2022-12-13T08:06:12;0.00;;;0.00;;
75163;SDS011;63746;45.402;37.922;2022-12-13T08:08:38;0.52;;;0.47;;
75163;SDS011;63746;45.402;37.922;2022-12-13T08:11:09;0.30;;;0.25;;
75163;SDS011;63746;45.402;37.922;2022-12-13T08:13:37;0.00;;;0.00;;
75163;SDS011;63746;45.402;37.922;2022-12-13T08:16:04;0.15;;;0.05;;
75163;SDS011;63746;45.402;37.922;2022-12-13T08:18:32;0.10;;;0.10;;
75163;SDS011;63746;45.402;37.922;2022-12-13T08:20:58;0.35;;;0.10;;
75163;SDS011;63746;45.402;37.922;2022-12-13T08:23:25;0.70;;;0.35;;
75163;SDS011;63746;45.402;37.922;2022-12-13T08:25:53;0.00;;;0.00;;
75163;SDS011;63746;45.402;37.922;2022-12-13T08:28:19;0.00;;;0.00;;
75163;SDS011;63746;45.402;37.922;2022-12-13T08:30:47;0.22;;;0.17;;
75163;SDS011;63746;45.402;37.922;2022-12-13T08:33:14;0.08;;;0.03;;
75163;SDS011;63746;45.402;37.922;2022-12-13T08:35:40;0.00;;;0.00;;
75163;SDS011;63746;45.402;37.922;2022-12-13T08:38:06;0.63;;;0.55;;
75163;SDS011;63746;45.402;37.922;2022-12-13T08:40:32;0.00;;;0.00;;
75163;SDS011;63746;45.402;37.922;2022-12-13T08:42:59;0.05;;;0.05;;
75163;SDS011;63746;45.402;37.922;2022-12-13T08:45:25;0.10;;;0.10;;
75163;SDS011;63746;45.402;37.922;2022-12-13T08:47:52;0.08;;;0.00;;
75163;SDS011;63746;45.402;37.922;2022-12-13T08:50:18;0.08;;;0.00;;
75163;SDS011;63746;45.402;37.922;2022-12-13T08:52:44;0.20;;;0.13;;
75163;SDS011;63746;45.402;37.922;2022-12-13T08:55:11;0.00;;;0.00;;
75163;SDS011;63746;45.402;37.922;2022-12-13T08:57:38;0.45;;;0.45;;
75163;SDS011;63746;45.402;37.922;2022-12-13T09:00:05;0.08;;;0.03;;
75163;SDS011;63746;45.402;37.922;2022-12-13T09:02:33;0.00;;;0.00;;
75163;SDS011;63746;45.402;37.922;2022-12-13T09:04:59;0.00;;;0.00;;
75163;SDS011;63746;45.402;37.922;2022-12-13T09:07:26;0.00;;;0.00;;
75163;SDS011;63746;45.402;37.922;2022-12-13T09:09:52;0.00;;;0.00;;
75163;SDS011;63746;45.402;37.922;2022-12-13T09:12:18;0.30;;;0.17;;
75163;SDS011;63746;45.402;37.922;2022-12-13T09:14:45;0.10;;;0.10;;
75163;SDS011;63746;45.402;37.922;2022-12-13T09:17:12;0.00;;;0.00;;
75163;SDS011;63746;45.402;37.922;2022-12-13T09:19:39;0.10;;;0.10;;
75163;SDS011;63746;45.402;37.922;2022-12-13T09:22:06;0.32;;;0.30;;
75163;SDS011;63746;45.402;37.922;2022-12-13T09:24:32;0.03;;;0.03;;
75163;SDS011;63746;45.402;37.922;2022-12-13T09:26:58;0.00;;;0.00;;
75163;SDS011;63746;45.402;37.922;2022-12-13T09:29:24;0.10;;;0.00;;
75163;SDS011;63746;45.402;37.922;2022-12-13T09:31:50;0.20;;;0.10;;
75163;SDS011;63746;45.402;37.922;2022-12-13T09:34:17;0.00;;;0.00;;
75163;SDS011;63746;45.402;37.922;2022-12-13T09:36:43;0.52;;;0.40;;
75163;SDS011;63746;45.402;37.922;2022-12-13T09:39:09;0.00;;;0.00;;
75163;SDS011;63746;45.402;37.922;2022-12-13T09:41:37;0.00;;;0.00;;
75163;SDS011;63746;45.402;37.922;2022-12-13T09:44:22;0.13;;;0.13;;
75163;SDS011;63746;45.402;37.922;2022-12-13T09:46:51;0.13;;;0.10;;
75163;SDS011;63746;45.402;37.922;2022-12-13T09:49:33;0.20;;;0.10;;
75163;SDS011;63746;45.402;37.922;2022-12-13T09:52:05;0.00;;;0.00;;
75163;SDS011;63746;45.402;37.922;2022-12-13T09:54:35;0.10;;;0.00;;
75163;SDS011;63746;45.402;37.922;2022-12-13T09:57:08;0.10;;;0.10;;
75163;SDS011;63746;45.402;37.922;2022-12-13T09:59:41;0.25;;;0.22;;
75163;SDS011;63746;45.402;37.922;2022-12-13T10:02:14;0.30;;;0.25;;
75163;SDS011;63746;45.402;37.922;2022-12-13T10:04:45;0.00;;;0.00;;
75163;SDS011;63746;45.402;37.922;2022-12-13T10:07:13;0.00;;;0.00;;
75163;SDS011;63746;45.402;37.922;2022-12-13T10:09:43;0.00;;;0.00;;
75163;SDS011;63746;45.402;37.922;2022-12-13T10:12:11;0.10;;;0.10;;
75163;SDS011;63746;45.402;37.922;2022-12-13T10:14:45;0.03;;;0.00;;
75163;SDS011;63746;45.402;37.922;2022-12-13T10:17:17;0.00;;;0.00;;
75163;SDS011;63746;45.402;37.922;2022-12-13T10:19:46;0.00;;;0.00;;
75163;SDS011;63746;45.402;37.922;2022-12-13T10:22:18;0.43;;;0.30;;
75163;SDS011;63746;45.402;37.922;2022-12-13T10:27:23;0.00;;;0.00;;
75163;SDS011;63746;45.402;37.922;2022-12-13T10:35:20;0.00;;;0.00;;
75163;SDS011;63746;45.402;37.922;2022-12-13T10:37:49;0.00;;;0.00;;
75163;SDS011;63746;45.402;37.922;2022-12-13T10:40:25;0.00;;;0.00;;
75163;SDS011;63746;45.402;37.922;2022-12-13T10:43:15;0.20;;;0.20;;
75163;SDS011;63746;45.402;37.922;2022-12-13T10:48:23;0.65;;;0.65;;
75163;SDS011;63746;45.402;37.922;2022-12-13T10:51:04;0.63;;;0.13;;
75163;SDS011;63746;45.402;37.922;2022-12-13T10:53:39;0.10;;;0.10;;
75163;SDS011;63746;45.402;37.922;2022-12-13T10:56:15;0.00;;;0.00;;
75163;SDS011;63746;45.402;37.922;2022-12-13T10:58:43;0.00;;;0.00;;
75163;SDS011;63746;45.402;37.922;2022-12-13T11:03:42;0.00;;;0.00;;
75163;SDS011;63746;45.402;37.922;2022-12-13T11:06:24;0.00;;;0.00;;
75163;SDS011;63746;45.402;37.922;2022-12-13T11:08:52;0.00;;;0.00;;
75163;SDS011;63746;45.402;37.922;2022-12-13T11:11:25;0.00;;;0.00;;
75163;SDS011;63746;45.402;37.922;2022-12-13T11:13:53;1.15;;;1.10;;
75163;SDS011;63746;45.402;37.922;2022-12-13T11:18:59;0.10;;;0.00;;
75163;SDS011;63746;45.402;37.922;2022-12-13T11:21:31;0.00;;;0.00;;
75163;SDS011;63746;45.402;37.922;2022-12-13T11:24:00;0.00;;;0.00;;
75163;SDS011;63746;45.402;37.922;2022-12-13T11:26:29;0.32;;;0.22;;
75163;SDS011;63746;45.402;37.922;2022-12-13T11:39:47;0.00;;;0.00;;
75163;SDS011;63746;45.402;37.922;2022-12-13T11:47:46;22.67;;;1.13;;
75163;SDS011;63746;45.402;37.922;2022-12-13T11:50:19;0.17;;;0.10;;
75163;SDS011;63746;45.402;37.922;2022-12-13T11:52:51;0.00;;;0.00;;
75163;SDS011;63746;45.402;37.922;2022-12-13T11:55:32;0.10;;;0.10;;
75163;SDS011;63746;45.402;37.922;2022-12-13T11:58:11;1.65;;;0.73;;
75163;SDS011;63746;45.402;37.922;2022-12-13T12:00:47;0.10;;;0.10;;
75163;SDS011;63746;45.402;37.922;2022-12-13T12:03:21;0.08;;;0.00;;
75163;SDS011;63746;45.402;37.922;2022-12-13T12:06:07;0.00;;;0.00;;
75163;SDS011;63746;45.402;37.922;2022-12-13T12:26:17;0.00;;;0.00;;
75163;SDS011;63746;45.402;37.922;2022-12-13T12:37:52;0.40;;;0.40;;
75163;SDS011;63746;45.402;37.922;2022-12-13T12:51:32;0.63;;;0.47;;
75163;SDS011;63746;45.402;37.922;2022-12-13T12:59:55;0.17;;;0.03;;
75163;SDS011;63746;45.402;37.922;2022-12-13T13:05:14;0.88;;;0.55;;
75163;SDS011;63746;45.402;37.922;2022-12-13T13:07:54;0.13;;;0.13;;
75163;SDS011;63746;45.402;37.922;2022-12-13T13:10:24;0.13;;;0.03;;
75163;SDS011;63746;45.402;37.922;2022-12-13T13:12:51;0.00;;;0.00;;
75163;SDS011;63746;45.402;37.922;2022-12-13T13:17:56;1.33;;;0.73;;
75163;SDS011;63746;45.402;37.922;2022-12-13T13:20:24;0.05;;;0.00;;
75163;SDS011;63746;45.402;37.922;2022-12-13T13:22:53;0.30;;;0.30;;
75163;SDS011;63746;45.402;37.922;2022-12-13T13:27:47;0.00;;;0.00;;
75163;SDS011;63746;45.402;37.922;2022-12-13T13:32:52;1.00;;;0.55;;
75163;SDS011;63746;45.402;37.922;2022-12-13T13:44:32;0.17;;;0.17;;
75163;SDS011;63746;45.402;37.922;2022-12-13T13:47:15;0.10;;;0.08;;
75163;SDS011;63746;45.402;37.922;2022-12-13T14:00:36;0.25;;;0.20;;
75163;SDS011;63746;45.402;37.922;2022-12-13T14:03:39;0.10;;;0.00;;
75163;SDS011;63746;45.402;37.922;2022-12-13T14:21:02;0.00;;;0.00;;
75163;SDS011;63746;45.402;37.922;2022-12-13T14:29:17;0.05;;;0.00;;
75163;SDS011;63746;45.402;37.922;2022-12-13T14:31:48;0.40;;;0.22;;
75163;SDS011;63746;45.402;37.922;2022-12-13T14:34:35;0.00;;;0.00;;
75163;SDS011;63746;45.402;37.922;2022-12-13T14:37:02;0.00;;;0.00;;
75163;SDS011;63746;45.402;37.922;2022-12-13T14:39:30;0.00;;;0.00;;
75163;SDS011;63746;45.402;37.922;2022-12-13T14:41:59;0.00;;;0.00;;
75163;SDS011;63746;45.402;37.922;2022-12-13T14:44:44;0.00;;;0.00;;
75163;SDS011;63746;45.402;37.922;2022-12-13T14:47:09;0.22;;;0.08;;
75163;SDS011;63746;45.402;37.922;2022-12-13T14:49:40;0.10;;;0.10;;
75163;SDS011;63746;45.402;37.922;2022-12-13T14:52:14;0.00;;;0.00;;
75163;SDS011;63746;45.402;37.922;2022-12-13T14:54:47;0.00;;;0.00;;
75163;SDS011;63746;45.402;37.922;2022-12-13T14:57:18;0.00;;;0.00;;
75163;SDS011;63746;45.402;37.922;2022-12-13T14:59:49;0.05;;;0.05;;
75163;SDS011;63746;45.402;37.922;2022-12-13T15:02:27;0.00;;;0.00;;
75163;SDS011;63746;45.402;37.922;2022-12-13T15:05:02;0.00;;;0.00;;
75163;SDS011;63746;45.402;37.922;2022-12-13T15:07:36;0.00;;;0.00;;
75163;SDS011;63746;45.402;37.922;2022-12-13T15:13:02;0.68;;;0.68;;
75163;SDS011;63746;45.402;37.922;2022-12-13T15:15:29;1.30;;;0.73;;
75163;SDS011;63746;45.402;37.922;2022-12-13T15:20:37;0.00;;;0.00;;
75163;SDS011;63746;45.402;37.922;2022-12-13T15:23:51;0.45;;;0.32;;
75163;SDS011;63746;45.402;37.922;2022-12-13T15:26:21;0.00;;;0.00;;
75163;SDS011;63746;45.402;37.922;2022-12-13T15:28:52;0.00;;;0.00;;
75163;SDS011;63746;45.402;37.922;2022-12-13T15:31:21;0.00;;;0.00;;
75163;SDS011;63746;45.402;37.922;2022-12-13T15:33:48;1.85;;;1.75;;
75163;SDS011;63746;45.402;37.922;2022-12-13T15:36:22;0.00;;;0.00;;
75163;SDS011;63746;45.402;37.922;2022-12-13T15:41:41;0.25;;;0.13;;
75163;SDS011;63746;45.402;37.922;2022-12-13T15:44:25;0.00;;;0.00;;
75163;SDS011;63746;45.402;37.922;2022-12-13T15:47:07;0.00;;;0.00;;
75163;SDS011;63746;45.402;37.922;2022-12-13T15:49:39;0.00;;;0.00;;
75163;SDS011;63746;45.402;37.922;2022-12-13T15:54:41;0.10;;;0.03;;
75163;SDS011;63746;45.402;37.922;2022-12-13T15:57:22;0.00;;;0.00;;
75163;SDS011;63746;45.402;37.922;2022-12-13T16:00:00;0.00;;;0.00;;
75163;SDS011;63746;45.402;37.922;2022-12-13T16:02:44;0.00;;;0.00;;
75163;SDS011;63746;45.402;37.922;2022-12-13T16:05:28;0.00;;;0.00;;
75163;SDS011;63746;45.402;37.922;2022-12-13T16:07:57;0.00;;;0.00;;
75163;SDS011;63746;45.402;37.922;2022-12-13T16:10:25;0.00;;;0.00;;
75163;SDS011;63746;45.402;37.922;2022-12-13T16:13:03;0.00;;;0.00;;
75163;SDS011;63746;45.402;37.922;2022-12-13T16:15:52;0.00;;;0.00;;
75163;SDS011;63746;45.402;37.922;2022-12-13T16:18:21;0.00;;;0.00;;
75163;SDS011;63746;45.402;37.922;2022-12-13T16:20:52;0.00;;;0.00;;
75163;SDS011;63746;45.402;37.922;2022-12-13T16:23:18;0.00;;;0.00;;
75163;SDS011;63746;45.402;37.922;2022-12-13T16:25:44;0.10;;;0.08;;
75163;SDS011;63746;45.402;37.922;2022-12-13T16:28:10;0.00;;;0.00;;
75163;SDS011;63746;45.402;37.922;2022-12-13T16:35:45;0.20;;;0.20;;
75163;SDS011;63746;45.402;37.922;2022-12-13T16:38:11;0.00;;;0.00;;
75163;SDS011;63746;45.402;37.922;2022-12-13T16:40:38;0.00;;;0.00;;
75163;SDS011;63746;45.402;37.922;2022-12-13T16:43:06;0.00;;;0.00;;
75163;SDS011;63746;45.402;37.922;2022-12-13T16:45:41;0.00;;;0.00;;
75163;SDS011;63746;45.402;37.922;2022-12-13T16:48:08;0.00;;;0.00;;
75163;SDS011;63746;45.402;37.922;2022-12-13T16:50:36;0.15;;;0.10;;
75163;SDS011;63746;45.402;37.922;2022-12-13T16:53:05;0.00;;;0.00;;
75163;SDS011;63746;45.402;37.922;2022-12-13T16:55:31;0.00;;;0.00;;
75163;SDS011;63746;45.402;37.922;2022-12-13T16:57:59;0.00;;;0.00;;
75163;SDS011;63746;45.402;37.922;2022-12-13T17:00:27;0.00;;;0.00;;
75163;SDS011;63746;45.402;37.922;2022-12-13T17:02:54;0.00;;;0.00;;
75163;SDS011;63746;45.402;37.922;2022-12-13T17:05:21;0.05;;;0.05;;
75163;SDS011;63746;45.402;37.922;2022-12-13T17:07:48;0.00;;;0.00;;
75163;SDS011;63746;45.402;37.922;2022-12-13T17:10:14;0.17;;;0.17;;
75163;SDS011;63746;45.402;37.922;2022-12-13T17:12:40;0.47;;;0.47;;
75163;SDS011;63746;45.402;37.922;2022-12-13T17:15:07;0.00;;;0.00;;
75163;SDS011;63746;45.402;37.922;2022-12-13T17:17:37;0.08;;;0.00;;
75163;SDS011;63746;45.402;37.922;2022-12-13T17:20:05;0.00;;;0.00;;
75163;SDS011;63746;45.402;37.922;2022-12-13T17:22:34;0.10;;;0.10;;
75163;SDS011;63746;45.402;37.922;2022-12-13T17:25:00;0.00;;;0.00;;
75163;SDS011;63746;45.402;37.922;2022-12-13T17:27:27;0.00;;;0.00;;
75163;SDS011;63746;45.402;37.922;2022-12-13T17:29:54;0.00;;;0.00;;
75163;SDS011;63746;45.402;37.922;2022-12-13T17:32:20;0.00;;;0.00;;